KWHP/WHP METAR and TAF weather

Enter ICAO airport designator
Station Type Date Time Source
KWHP METAR 2021/01/22 03:50 UTC NOAA

KWHP 220350Z 03007KT 10SM SKC 14/04 A3005


Station Type Date Time Source
KWHP Decoded METAR 2021/01/22 03:50 UTC NOAA

Los Angeles, Whiteman Airport, CA, United States (KWHP) 34-15N 118-24W
Jan 21, 2021 - 10:50 PM EST / 2021.01.22 0350 UTC
Wind: from the NNE (030 degrees) at 8 MPH (7 KT):0
Visibility: 10 mile(s):0
Sky conditions: clear
Temperature: 57 F (14 C)
Dew Point: 39 F (4 C)
Relative Humidity: 50%
Pressure (altimeter): 30.05 in. Hg (1017 hPa)
ob: KWHP 220350Z 03007KT 10SM SKC 14/04 A3005
cycle: 4

Station Type Date Time Source
KWHP TAF UTC NOAA

Error!

Example: see airport list